Time;durP1;ratioP1;P1;durP2;ratioP2;P2;SDS_P1;SDS_P2;PMS_P1;PMS_P2;Temp;Humidity;BMP_temperature;BMP_pressure;BME280_temperature;BME280_humidity;BME280_pressure;Samples;Min_cycle;Max_cycle;Signal;HPM_P1;HPM_P2
2022/05/04 00:00:24;;;;;;;6.68;5.15;;;13.80;68.80;;;14.21;56.26;97537.81;5027145;28;20425;-44
2022/05/04 00:02:52;;;;;;;5.70;4.88;;;13.80;69.00;;;14.17;56.14;97531.16;5025092;28;20049;-44
2022/05/04 00:05:20;;;;;;;5.75;4.90;;;13.80;69.30;;;14.10;56.31;97531.09;5027480;28;20371;-46
2022/05/04 00:07:47;;;;;;;5.65;5.03;;;13.70;69.70;;;14.05;56.35;97535.31;5027356;28;20308;-45
2022/05/04 00:10:16;;;;;;;5.07;4.57;;;13.60;70.10;;;14.01;56.38;97526.00;5027721;28;20087;-43
2022/05/04 00:12:43;;;;;;;7.05;5.22;;;13.60;70.20;;;13.97;56.59;97531.72;5027622;28;20488;-44
2022/05/04 00:15:11;;;;;;;8.90;5.50;;;13.50;70.30;;;13.94;56.69;97531.28;5027900;28;20065;-48
2022/05/04 00:17:39;;;;;;;7.35;5.40;;;13.50;70.60;;;13.88;56.81;97529.34;5027374;28;20063;-44
2022/05/04 00:20:08;;;;;;;6.80;5.53;;;13.40;70.80;;;13.79;57.10;97525.94;5027205;28;20049;-46
2022/05/04 00:22:36;;;;;;;6.63;5.40;;;13.30;71.50;;;13.77;57.06;97526.09;5027145;28;20053;-46
2022/05/04 00:25:04;;;;;;;7.22;4.95;;;13.30;71.40;;;13.76;57.07;97531.63;5026209;28;20065;-48
2022/05/04 00:27:33;;;;;;;5.78;4.70;;;13.30;71.40;;;13.73;57.22;97522.16;5027644;28;20045;-47
2022/05/04 00:30:00;;;;;;;5.85;5.25;;;13.30;71.60;;;13.70;57.32;97535.88;5027120;28;20056;-44
2022/05/04 00:32:28;;;;;;;5.30;4.80;;;13.30;71.60;;;13.68;57.22;97534.41;5027462;28;20057;-44
2022/05/04 00:34:57;;;;;;;6.28;4.95;;;13.20;71.70;;;13.62;57.50;97522.59;5027085;28;20049;-44
2022/05/04 00:37:25;;;;;;;5.80;5.18;;;13.10;71.70;;;13.61;57.28;97528.97;5025795;28;20049;-44
2022/05/04 00:39:53;;;;;;;7.03;5.97;;;13.20;71.60;;;13.61;57.35;97526.31;5027962;28;20049;-46
2022/05/04 00:42:22;;;;;;;13.50;4.97;;;13.20;71.40;;;13.59;57.27;97529.16;5027765;28;20041;-44
2022/05/04 00:44:50;;;;;;;6.38;5.55;;;13.20;71.50;;;13.58;57.33;97530.16;5027291;28;20042;-44
2022/05/04 00:47:19;;;;;;;5.65;5.05;;;13.10;71.60;;;13.57;57.37;97527.66;5026636;28;20057;-48
2022/05/04 00:49:48;;;;;;;5.60;5.00;;;13.10;71.50;;;13.55;57.50;97522.50;5025636;28;20263;-45
2022/05/04 00:52:19;;;;;;;6.20;5.38;;;13.10;71.60;;;13.54;57.49;97523.50;5026995;28;20057;-45
2022/05/04 00:54:51;;;;;;;5.97;5.10;;;13.10;71.50;;;13.55;57.50;97519.84;5026598;28;20069;-45
2022/05/04 01:00:09;;;;;;;5.93;5.10;;;13.10;71.80;;;13.47;57.65;97525.25;5026315;28;20057;-45
2022/05/04 01:02:39;;;;;;;7.07;4.90;;;13.10;72.10;;;13.45;57.63;97521.09;5030385;28;20053;-43
2022/05/04 01:05:11;;;;;;;5.28;4.75;;;13.00;72.20;;;13.41;57.92;97522.47;5029983;28;20064;-44
2022/05/04 01:07:42;;;;;;;6.00;4.75;;;12.90;72.50;;;13.34;57.94;97523.22;5030433;28;20049;-45
2022/05/04 01:10:12;;;;;;;6.88;6.20;;;12.90;73.00;;;13.32;57.97;97524.41;5030763;28;20049;-44
2022/05/04 01:12:50;;;;;;;5.95;5.18;;;12.90;73.00;;;13.31;58.04;97531.59;5030388;28;20046;-44
2022/05/04 01:15:22;;;;;;;6.07;5.30;;;12.90;73.30;;;13.31;58.06;97525.41;5030013;28;20058;-45
2022/05/04 01:17:50;;;;;;;7.68;5.68;;;12.90;72.90;;;13.31;58.05;97528.09;5031526;28;20080;-45
2022/05/04 01:20:19;;;;;;;6.53;5.05;;;12.90;73.00;;;13.30;58.15;97532.63;5030311;28;20252;-46
2022/05/04 01:22:47;;;;;;;5.85;5.20;;;12.90;73.00;;;13.28;58.16;97523.91;5030173;28;20045;-47
2022/05/04 01:25:15;;;;;;;5.75;5.00;;;12.90;73.00;;;13.26;57.95;97530.44;5029307;28;20045;-46
2022/05/04 01:27:43;;;;;;;5.82;5.22;;;12.80;72.90;;;13.24;58.12;97533.31;5031157;28;20037;-45
2022/05/04 01:30:12;;;;;;;6.85;6.18;;;12.80;73.20;;;13.18;58.29;97529.50;5027198;28;20064;-44
2022/05/04 01:32:40;;;;;;;5.85;4.63;;;12.70;73.30;;;13.16;58.52;97533.34;5030255;28;20053;-44
2022/05/04 01:35:08;;;;;;;6.72;5.93;;;12.70;73.40;;;13.15;58.46;97531.72;5027353;28;20079;-46
2022/05/04 01:37:37;;;;;;;8.77;6.15;;;12.70;73.30;;;13.14;58.35;97530.03;5030424;28;20053;-47
2022/05/04 01:40:06;;;;;;;5.80;5.20;;;12.70;73.10;;;13.14;58.18;97530.03;5029743;28;20052;-46
2022/05/04 01:42:34;;;;;;;6.80;5.20;;;12.80;73.00;;;13.12;58.25;97527.53;5029995;28;20053;-46
2022/05/04 01:45:03;;;;;;;6.90;6.03;;;12.70;73.20;;;13.09;58.38;97530.59;5029043;28;20348;-46
2022/05/04 01:47:32;;;;;;;7.22;5.43;;;12.70;73.50;;;13.05;58.42;97531.13;5029611;28;20057;-45
2022/05/04 01:50:00;;;;;;;6.72;5.80;;;12.60;73.60;;;13.02;58.33;97526.97;5030012;28;20053;-46
2022/05/04 01:52:27;;;;;;;7.88;5.57;;;12.60;73.70;;;13.00;58.65;97529.00;5029691;28;20062;-46
2022/05/04 01:54:55;;;;;;;6.20;5.47;;;12.60;73.90;;;13.00;58.49;97531.66;5030100;28;20059;-46
2022/05/04 01:57:23;;;;;;;6.85;5.10;;;12.60;73.90;;;12.98;58.50;97534.50;5030701;28;20725;-47
2022/05/04 01:59:51;;;;;;;8.15;5.40;;;12.60;74.00;;;12.98;58.52;97531.00;5029321;28;20352;-45
2022/05/04 02:02:19;;;;;;;5.88;5.18;;;12.60;74.10;;;12.94;58.73;97530.53;5028849;28;20220;-44
2022/05/04 02:04:49;;;;;;;6.18;5.38;;;12.50;74.20;;;12.85;59.17;97534.25;5030118;28;20059;-46
2022/05/04 02:07:17;;;;;;;6.28;5.38;;;12.30;74.80;;;12.77;58.93;97529.00;5029288;28;20080;-48
2022/05/04 02:09:46;;;;;;;6.53;4.97;;;12.30;75.30;;;12.77;59.08;97526.31;5029305;28;20042;-45
2022/05/04 02:12:14;;;;;;;6.25;4.82;;;12.30;75.50;;;12.79;59.09;97525.16;5029783;28;20053;-47
2022/05/04 02:14:42;;;;;;;7.60;5.25;;;12.40;75.00;;;12.80;58.94;97520.63;5028368;28;20054;-45
2022/05/04 02:17:10;;;;;;;6.35;5.43;;;12.40;74.80;;;12.78;59.19;97517.31;5030265;28;20058;-44
2022/05/04 02:19:37;;;;;;;7.32;5.65;;;12.30;74.90;;;12.77;59.01;97520.97;5028669;28;20064;-45
2022/05/04 02:22:05;;;;;;;6.82;5.90;;;12.30;74.90;;;12.77;59.03;97519.13;5029526;28;20557;-47
2022/05/04 02:24:33;;;;;;;7.30;5.63;;;12.30;74.70;;;12.76;59.14;97522.00;5028366;28;20050;-45
2022/05/04 02:27:01;;;;;;;7.05;6.15;;;12.30;74.70;;;12.75;59.15;97523.00;5030237;28;20061;-49
2022/05/04 02:29:29;;;;;;;7.40;6.35;;;12.30;74.50;;;12.75;58.87;97523.81;5028354;28;20049;-47
2022/05/04 02:31:58;;;;;;;6.88;5.78;;;12.30;74.40;;;12.72;58.98;97518.84;5027324;28;20037;-45
2022/05/04 02:34:26;;;;;;;10.10;5.88;;;12.30;74.60;;;12.72;59.14;97528.72;5027583;28;20053;-45
2022/05/04 02:39:41;;;;;;;7.05;6.35;;;12.30;74.80;;;12.66;59.29;97532.91;5028861;28;20057;-43
2022/05/04 02:42:10;;;;;;;10.15;9.13;;;12.30;75.00;;;12.65;58.97;97528.56;5027808;28;20061;-44
2022/05/04 02:44:38;;;;;;;8.60;7.40;;;12.20;74.70;;;12.64;59.01;97524.25;5029592;28;20267;-46
2022/05/04 02:47:06;;;;;;;9.30;7.55;;;12.20;74.70;;;12.61;59.17;97530.75;5029125;28;20373;-44
2022/05/04 02:49:34;;;;;;;7.93;7.05;;;12.20;75.00;;;12.59;59.23;97526.63;5028330;28;20080;-43
2022/05/04 02:52:02;;;;;;;8.10;6.75;;;12.10;75.30;;;12.56;59.16;97522.47;5027170;28;20063;-43
2022/05/04 02:54:29;;;;;;;7.07;6.10;;;12.10;75.50;;;12.54;59.40;97520.97;5027913;28;20045;-44
2022/05/04 02:56:57;;;;;;;7.22;6.53;;;12.10;75.70;;;12.49;59.58;97513.50;5029317;28;20045;-47
2022/05/04 02:59:25;;;;;;;6.95;6.22;;;12.00;75.40;;;12.47;59.62;97517.34;5027916;28;20061;-44
2022/05/04 03:04:39;;;;;;;7.63;6.00;;;12.00;76.00;;;12.46;59.48;97513.84;5029007;28;20253;-48
2022/05/04 03:07:07;;;;;;;7.53;5.88;;;12.00;75.80;;;12.45;59.73;97511.38;5029401;28;20053;-45
2022/05/04 03:09:35;;;;;;;7.22;6.43;;;12.00;75.90;;;12.42;59.59;97509.84;5027820;28;20053;-49
2022/05/04 03:12:03;;;;;;;7.35;6.60;;;12.00;76.00;;;12.43;59.81;97516.03;5028635;28;20049;-45
2022/05/04 03:14:31;;;;;;;6.78;6.07;;;12.00;75.90;;;12.44;59.71;97507.00;5028241;28;20052;-47
2022/05/04 03:16:59;;;;;;;9.18;6.25;;;12.00;75.80;;;12.45;59.97;97509.50;5028435;28;20053;-45
2022/05/04 03:19:27;;;;;;;8.07;6.47;;;12.10;75.70;;;12.49;59.64;97513.50;5027615;28;20055;-45
2022/05/04 03:21:54;;;;;;;7.35;5.95;;;12.10;75.40;;;12.50;59.80;97503.63;5027034;28;20065;-44
2022/05/04 03:24:23;;;;;;;7.32;6.45;;;12.20;75.10;;;12.52;59.42;97510.47;5027879;28;20053;-47
2022/05/04 03:26:50;;;;;;;8.73;6.70;;;12.10;75.10;;;12.53;59.74;97509.47;5029761;28;20049;-46
2022/05/04 03:29:19;;;;;;;8.20;7.25;;;12.20;75.10;;;12.52;59.71;97505.13;5028752;28;20049;-44
2022/05/04 03:31:47;;;;;;;8.05;6.10;;;12.20;75.10;;;12.51;59.58;97506.13;5027423;28;20237;-45
2022/05/04 03:34:15;;;;;;;8.98;7.20;;;12.10;75.10;;;12.51;59.55;97513.31;5028935;28;20051;-43
2022/05/04 03:36:43;;;;;;;9.48;8.48;;;12.10;75.10;;;12.49;59.54;97512.66;5027443;28;20059;-45
2022/05/04 03:39:10;;;;;;;21.42;16.48;;;12.10;75.50;;;12.48;59.72;97511.00;5027610;28;20243;-43
2022/05/04 03:41:39;;;;;;;17.08;13.38;;;12.10;75.70;;;12.48;59.55;97511.00;5026938;28;20057;-44
2022/05/04 03:44:07;;;;;;;17.42;14.57;;;12.10;75.60;;;12.51;60.07;97513.31;5027955;28;20045;-45
2022/05/04 03:46:46;;;;;;;10.80;9.50;;;12.10;75.70;;;12.53;59.75;97504.13;5028077;28;20045;-43
2022/05/04 03:49:16;;;;;;;9.68;8.48;;;12.20;75.80;;;12.55;59.87;97511.97;5026625;28;20049;-45
2022/05/04 03:51:44;;;;;;;11.75;10.23;;;12.20;75.40;;;12.55;59.98;97511.97;5026951;28;20076;-45
2022/05/04 03:54:12;;;;;;;12.45;11.18;;;12.20;76.10;;;12.54;60.12;97508.47;5026956;28;20049;-45
2022/05/04 03:56:41;;;;;;;15.65;12.45;;;12.20;75.30;;;12.53;59.97;97512.13;5028282;28;20049;-45
2022/05/04 03:59:10;;;;;;;13.90;10.65;;;12.20;75.60;;;12.52;60.10;97514.97;5027556;28;20051;-43
2022/05/04 04:01:38;;;;;;;11.50;10.30;;;12.10;75.80;;;12.38;60.12;97514.72;5027966;28;20057;-44
2022/05/04 04:04:06;;;;;;;11.80;10.32;;;11.90;76.40;;;12.32;60.34;97522.59;5027046;28;20053;-44
2022/05/04 04:06:35;;;;;;;13.40;10.55;;;11.90;77.10;;;12.32;60.51;97517.25;5028083;28;20060;-45
2022/05/04 04:09:03;;;;;;;10.75;9.38;;;11.90;77.00;;;12.30;60.74;97517.44;5027230;28;20064;-44
2022/05/04 04:11:32;;;;;;;10.85;9.55;;;11.90;77.30;;;12.32;60.75;97520.75;5027363;28;20312;-43
2022/05/04 04:14:01;;;;;;;10.02;8.70;;;11.90;77.10;;;12.30;60.46;97525.44;5027350;28;20063;-44
2022/05/04 04:16:29;;;;;;;12.85;9.68;;;11.90;77.50;;;12.36;60.81;97526.59;5027402;28;20048;-46
2022/05/04 04:18:57;;;;;;;14.77;10.73;;;12.00;77.50;;;12.39;60.84;97529.72;5026295;28;20071;-44
2022/05/04 04:24:11;;;;;;;23.20;18.60;;;12.10;76.80;;;12.44;60.58;97526.53;5025067;28;20072;-47
2022/05/04 04:26:39;;;;;;;37.35;27.35;;;12.10;76.80;;;12.46;60.38;97535.19;5026457;28;20045;-44
2022/05/04 04:29:08;;;;;;;19.90;16.30;;;12.10;76.70;;;12.45;60.44;97532.72;5026865;28;20057;-44
2022/05/04 04:31:36;;;;;;;13.32;10.02;;;12.10;77.10;;;12.44;60.35;97537.22;5025538;28;20356;-44
2022/05/04 04:34:04;;;;;;;10.05;8.35;;;12.00;77.50;;;12.36;60.85;97542.59;5027241;28;20053;-44
2022/05/04 04:36:39;;;;;;;10.52;7.53;;;11.90;78.10;;;12.29;61.08;97546.97;5027109;28;20235;-45
2022/05/04 04:39:07;;;;;;;11.88;9.15;;;11.80;78.50;;;12.19;60.80;97550.69;5026567;28;20053;-43
2022/05/04 04:41:35;;;;;;;16.15;14.27;;;11.60;79.60;;;12.11;61.13;97545.38;5027857;28;20067;-43
2022/05/04 04:44:03;;;;;;;14.52;12.77;;;11.50;80.60;;;12.10;61.43;97550.91;5025468;28;20057;-44
2022/05/04 04:46:31;;;;;;;10.95;8.88;;;11.60;80.50;;;12.13;61.49;97551.38;5026370;28;20067;-44
2022/05/04 04:48:59;;;;;;;10.55;8.55;;;11.70;80.20;;;12.17;61.56;97551.84;5026350;28;20344;-44
2022/05/04 04:51:27;;;;;;;16.10;13.45;;;11.80;79.70;;;12.23;61.53;97559.16;5026787;28;20042;-43
2022/05/04 04:53:55;;;;;;;16.80;13.35;;;11.90;79.50;;;12.28;61.45;97556.00;5026448;28;20059;-45
2022/05/04 04:56:22;;;;;;;11.85;9.05;;;12.00;79.00;;;12.30;61.57;97565.47;5027457;28;20045;-44
2022/05/04 04:58:50;;;;;;;9.15;7.72;;;12.00;78.90;;;12.34;61.29;97557.97;5025654;28;20049;-47
2022/05/04 05:01:19;;;;;;;9.48;7.72;;;12.10;79.10;;;12.36;61.70;97553.28;5026646;28;20068;-44
2022/05/04 05:03:47;;;;;;;9.70;7.82;;;12.10;79.10;;;12.42;61.47;97555.25;5026248;28;20373;-44
2022/05/04 05:06:15;;;;;;;9.82;7.95;;;12.20;78.90;;;12.50;61.67;97554.38;5026231;28;20080;-42
2022/05/04 05:08:43;;;;;;;9.07;7.55;;;12.30;78.50;;;12.58;61.44;97554.31;5025257;28;20049;-45
2022/05/04 05:11:11;;;;;;;9.13;7.95;;;12.40;78.10;;;12.58;61.39;97557.84;5025106;28;20053;-45
2022/05/04 05:16:06;;;;;;;12.20;9.18;;;12.30;78.30;;;12.56;61.72;97559.84;5026218;28;20065;-44
2022/05/04 05:16:26;;;;;;;9.50;7.90;;;12.30;78.60;;;12.59;61.37;97556.00;5025380;28;20057;-45
2022/05/04 05:18:54;;;;;;;9.02;7.55;;;12.30;78.70;;;12.60;61.71;97557.63;5026764;28;20084;-47
2022/05/04 05:21:22;;;;;;;7.97;7.18;;;12.40;78.90;;;12.67;61.56;97558.59;5026481;28;20225;-47
2022/05/04 05:23:50;;;;;;;8.65;7.70;;;12.50;78.70;;;12.74;61.75;97556.91;5025744;28;20356;-45
2022/05/04 05:26:18;;;;;;;9.05;7.80;;;12.60;78.20;;;12.78;61.47;97552.84;5027634;28;20058;-44
2022/05/04 05:28:47;;;;;;;8.32;7.15;;;12.50;78.10;;;12.79;61.23;97551.00;5025687;28;20061;-43
2022/05/04 05:31:14;;;;;;;7.32;6.63;;;12.50;78.10;;;12.77;61.63;97550.34;5026129;28;20049;-46
2022/05/04 05:33:45;;;;;;;11.18;8.57;;;12.50;78.60;;;12.80;61.59;97550.84;5025930;28;20054;-45
2022/05/04 05:36:13;;;;;;;9.63;7.75;;;12.60;78.60;;;12.89;61.41;97543.63;5024316;28;20055;-46
2022/05/04 05:38:41;;;;;;;11.23;8.52;;;12.70;78.10;;;12.97;61.30;97553.41;5025447;28;20053;-46
2022/05/04 05:41:09;;;;;;;8.40;7.60;;;12.80;77.60;;;13.00;61.38;97550.38;5025199;28;20071;-46
2022/05/04 05:43:36;;;;;;;8.70;7.30;;;12.90;77.70;;;13.06;61.64;97554.16;5025950;28;20276;-44
2022/05/04 05:46:04;;;;;;;7.85;7.05;;;12.90;77.70;;;13.13;61.61;97547.94;5027107;28;20058;-46
2022/05/04 05:48:32;;;;;;;8.80;6.53;;;13.00;77.30;;;13.19;61.26;97554.41;5029227;28;20237;-49
2022/05/04 05:51:05;;;;;;;26.40;17.65;;;13.10;77.20;;;13.24;61.22;97559.19;5029697;28;20072;-45
2022/05/04 05:53:33;;;;;;;12.13;8.68;;;13.10;77.20;;;13.26;61.33;97555.34;5028326;28;20367;-46
2022/05/04 05:56:01;;;;;;;11.13;7.75;;;13.20;77.20;;;13.30;61.60;97559.34;5028640;28;20239;-46
2022/05/04 05:58:28;;;;;;;7.75;6.95;;;13.20;77.60;;;13.36;61.56;97565.81;5029911;28;20046;-46
2022/05/04 06:00:56;;;;;;;9.23;6.63;;;13.20;78.00;;;13.42;61.49;97567.75;5028870;28;20067;-47
2022/05/04 06:03:24;;;;;;;7.70;6.65;;;13.30;77.80;;;13.47;61.38;97569.88;5027960;28;20076;-47
2022/05/04 06:05:52;;;;;;;9.93;7.90;;;13.40;77.30;;;13.51;61.34;97571.19;5029230;28;20053;-44
2022/05/04 06:08:20;;;;;;;9.05;6.97;;;13.40;77.30;;;13.54;61.39;97568.16;5028038;28;20263;-49
2022/05/04 06:10:48;;;;;;;7.47;6.43;;;13.40;77.40;;;13.55;61.32;97570.66;5028253;28;20054;-47
2022/05/04 06:13:16;;;;;;;6.85;6.15;;;13.40;77.30;;;13.58;61.43;97575.63;5028902;28;20258;-46
2022/05/04 06:15:44;;;;;;;9.30;7.80;;;13.50;77.40;;;13.60;61.33;97583.47;5029973;28;20250;-47
2022/05/04 06:18:12;;;;;;;11.05;7.57;;;13.50;77.30;;;13.58;61.77;97582.81;5030380;28;20057;-44
2022/05/04 06:20:40;;;;;;;8.55;7.25;;;13.40;78.50;;;13.52;62.07;97586.22;5030237;28;20063;-45
2022/05/04 06:23:08;;;;;;;11.02;9.25;;;13.30;79.70;;;13.50;62.36;97589.06;5028217;28;20237;-45
2022/05/04 06:25:36;;;;;;;14.52;8.10;;;13.30;80.70;;;13.52;62.15;97586.22;5029328;28;20248;-44
2022/05/04 06:28:04;;;;;;;9.27;7.68;;;13.30;79.50;;;13.44;62.23;97584.47;5028860;28;20061;-45
2022/05/04 06:36:06;;;;;;;8.05;7.25;;;13.40;79.00;;;13.62;62.12;97596.66;5029469;28;20056;-46
2022/05/04 06:38:33;;;;;;;10.50;7.47;;;13.50;79.40;;;13.68;62.52;97595.94;5029322;28;20370;-45
2022/05/04 06:41:03;;;;;;;8.70;7.82;;;13.60;80.50;;;13.70;62.74;97597.41;5028593;28;20517;-49
2022/05/04 06:43:32;;;;;;;8.52;7.65;;;13.60;81.30;;;13.70;62.72;97602.75;5028831;28;20049;-47
2022/05/04 06:46:01;;;;;;;10.27;7.93;;;13.60;81.30;;;13.67;62.42;97603.13;5028678;28;20061;-45
2022/05/04 06:48:29;;;;;;;9.55;8.50;;;13.50;80.70;;;13.63;62.59;97603.66;5028880;28;20053;-47
2022/05/04 06:50:57;;;;;;;9.32;7.90;;;13.40;81.20;;;13.58;62.91;97607.72;5027630;28;20060;-45
2022/05/04 06:53:25;;;;;;;10.85;8.25;;;13.30;82.00;;;13.57;63.04;97618.59;5028245;28;20072;-46
2022/05/04 06:55:52;;;;;;;8.40;7.50;;;13.30;82.80;;;13.60;62.69;97620.91;5030132;28;20059;-45
2022/05/04 06:58:20;;;;;;;9.05;6.95;;;13.30;83.30;;;13.42;62.89;97620.41;5026432;28;20067;-46
2022/05/04 07:00:48;;;;;;;8.52;7.30;;;13.10;82.30;;;13.27;63.15;97618.47;5027935;28;20328;-46
2022/05/04 07:03:17;;;;;;;10.90;7.75;;;12.80;83.10;;;13.19;63.15;97616.69;5027981;28;20059;-48
2022/05/04 07:05:45;;;;;;;8.98;7.22;;;12.70;84.30;;;13.23;63.00;97614.50;5028555;28;20041;-45
2022/05/04 07:08:13;;;;;;;10.40;7.05;;;12.90;84.20;;;13.34;62.83;97619.47;5028038;28;20046;-45
2022/05/04 07:10:41;;;;;;;9.25;8.05;;;13.10;82.60;;;13.39;62.76;97626.94;5027338;28;20045;-45
2022/05/04 07:13:09;;;;;;;8.55;7.35;;;13.20;82.10;;;13.46;62.51;97616.38;5027368;28;20068;-53
2022/05/04 07:15:37;;;;;;;8.63;7.28;;;13.20;81.20;;;13.52;62.60;97621.00;5029573;28;20057;-54
2022/05/04 07:18:05;;;;;;;9.02;8.05;;;13.30;80.80;;;13.55;62.37;97617.94;5027272;28;20053;-55
2022/05/04 07:20:33;;;;;;;8.93;7.78;;;13.40;80.70;;;13.61;62.55;97617.25;5026733;28;20042;-53
2022/05/04 07:23:01;;;;;;;9.80;7.68;;;13.40;81.10;;;13.61;62.10;97617.25;5026931;28;20049;-53
2022/05/04 07:25:29;;;;;;;7.72;6.93;;;13.40;79.50;;;13.67;62.17;97618.38;5026796;28;20053;-52
2022/05/04 07:27:57;;;;;;;9.48;7.80;;;13.50;79.90;;;13.78;62.18;97620.56;5028320;28;20053;-54
2022/05/04 07:30:25;;;;;;;8.98;7.40;;;13.70;78.60;;;13.59;61.97;97624.63;5027552;28;20247;-55
2022/05/04 07:32:52;;;;;;;10.32;7.80;;;13.50;77.40;;;13.57;62.14;97629.28;5027387;28;20060;-54
2022/05/04 07:35:20;;;;;;;8.88;7.00;;;13.40;79.40;;;13.38;62.17;97630.63;5026980;28;20053;-52
2022/05/04 07:37:49;;;;;;;7.30;6.60;;;13.30;79.10;;;13.41;62.18;97618.75;5028014;28;20049;-54
2022/05/04 07:43:03;;;;;;;8.52;7.30;;;13.30;79.30;;;13.54;62.33;97613.63;5027109;28;20075;-52
2022/05/04 07:45:31;;;;;;;7.80;6.93;;;13.50;78.90;;;13.61;62.45;97613.72;5028465;28;20071;-55
2022/05/04 07:47:59;;;;;;;10.18;8.80;;;13.60;78.20;;;13.76;62.24;97620.78;5028470;28;20631;-52
2022/05/04 07:50:28;;;;;;;8.00;6.85;;;13.80;78.20;;;13.96;62.00;97622.94;5027453;28;20056;-50
2022/05/04 07:52:56;;;;;;;7.72;6.65;;;14.10;77.30;;;14.07;61.47;97624.31;5027157;28;20057;-52
2022/05/04 07:55:24;;;;;;;8.75;7.85;;;14.20;75.80;;;14.06;61.56;97622.66;5027471;28;20061;-54
2022/05/04 07:57:52;;;;;;;7.70;6.88;;;14.20;75.20;;;14.17;61.34;97624.84;5028008;28;20067;-55
2022/05/04 08:05:57;;;;;;;10.45;8.05;;;14.10;76.30;;;14.21;61.30;97631.53;5034440;28;20053;-55
2022/05/04 08:08:26;;;;;;;8.15;6.88;;;14.20;76.30;;;14.20;61.03;97631.72;5036939;28;20045;-54
2022/05/04 08:11:01;;;;;;;8.00;7.28;;;14.20;76.10;;;14.34;61.10;97639.72;5030894;28;20051;-53
2022/05/04 08:13:29;;;;;;;10.07;8.07;;;14.40;76.10;;;14.41;61.21;97631.78;5038250;28;20040;-52
2022/05/04 08:15:57;;;;;;;9.10;7.72;;;14.50;76.30;;;14.32;61.11;97639.06;5033793;28;20055;-54
2022/05/04 08:18:25;;;;;;;8.63;7.57;;;14.30;76.10;;;14.37;60.85;97644.72;5036638;28;20348;-54
2022/05/04 08:20:53;;;;;;;9.35;7.88;;;14.30;76.00;;;14.40;61.22;97648.84;5034501;28;20045;-54
2022/05/04 08:23:20;;;;;;;9.52;7.78;;;14.40;76.20;;;14.47;61.38;97647.09;5046586;28;20056;-53
2022/05/04 08:25:50;;;;;;;8.80;7.38;;;14.50;76.60;;;14.43;60.85;97653.84;5047093;28;20069;-54
2022/05/04 08:28:19;;;;;;;9.15;7.72;;;14.40;75.50;;;14.39;61.09;97655.25;5047119;28;20247;-51
2022/05/04 08:30:47;;;;;;;8.80;7.60;;;14.40;76.30;;;14.39;61.50;97655.25;5045791;28;20049;-53
2022/05/04 08:33:15;;;;;;;9.32;8.10;;;14.40;76.40;;;14.44;61.32;97643.97;5046459;28;20047;-53
2022/05/04 08:35:43;;;;;;;9.23;8.13;;;14.40;77.10;;;14.51;61.54;97659.13;5044124;28;20059;-53
2022/05/04 08:38:12;;;;;;;10.65;8.52;;;14.50;76.60;;;14.54;61.49;97657.94;5045353;28;20045;-53
2022/05/04 08:40:40;;;;;;;10.88;9.15;;;14.60;76.40;;;14.38;61.95;97657.09;5044544;28;20052;-52
2022/05/04 08:43:09;;;;;;;10.57;9.00;;;14.40;77.50;;;14.29;62.39;97658.22;5045964;28;20052;-54
2022/05/04 08:45:39;;;;;;;10.27;8.93;;;14.20;79.00;;;14.24;61.63;97660.59;5046384;28;20071;-55
2022/05/04 08:48:08;;;;;;;10.80;9.40;;;14.20;76.40;;;14.26;61.89;97660.41;5046402;28;20049;-55
2022/05/04 08:50:39;;;;;;;11.02;9.93;;;14.20;77.40;;;14.34;61.72;97657.63;5045441;28;20090;-53
2022/05/04 08:53:08;;;;;;;9.98;8.90;;;14.30;77.00;;;14.44;61.73;97655.50;5024652;28;20112;-51
2022/05/04 08:55:40;;;;;;;10.05;8.65;;;14.40;76.80;;;14.40;61.27;97656.06;5026340;28;20049;-56
2022/05/04 08:58:08;;;;;;;12.60;9.18;;;14.40;75.30;;;14.43;61.33;97655.72;5026091;28;20079;-51
2022/05/04 09:00:36;;;;;;;10.00;8.48;;;14.40;76.30;;;14.36;60.98;97660.97;5026613;28;20368;-55
2022/05/04 09:03:06;;;;;;;10.75;9.35;;;14.40;75.70;;;14.39;61.25;97657.94;5025479;28;20071;-50
2022/05/04 09:05:40;;;;;;;12.05;9.93;;;14.40;76.20;;;14.51;61.41;97661.78;5025746;28;20135;-52
2022/05/04 09:08:09;;;;;;;11.85;10.45;;;14.50;76.90;;;14.43;61.43;97663.75;5026427;28;20075;-55
2022/05/04 09:11:27;;;;;;;10.35;9.35;;;14.50;76.40;;;14.38;61.80;97657.09;5026081;28;20248;-51
2022/05/04 09:14:00;;;;;;;11.43;10.23;;;14.50;76.50;;;14.49;61.23;97649.59;5025080;28;20038;-51
2022/05/04 09:16:44;;;;;;;11.65;10.27;;;14.50;75.70;;;14.64;60.99;97649.63;5027795;28;20066;-53
2022/05/04 09:19:19;;;;;;;12.13;10.88;;;14.70;76.00;;;14.71;60.97;97656.75;5031352;28;20263;-51
2022/05/04 09:21:48;;;;;;;13.15;11.05;;;14.80;75.40;;;14.79;61.01;97654.94;5042193;28;20041;-53
2022/05/04 09:24:27;;;;;;;14.00;10.85;;;14.80;76.00;;;14.89;61.16;97650.16;5042857;28;20059;-54
2022/05/04 09:27:01;;;;;;;20.88;11.32;;;15.00;75.90;;;15.00;60.79;97654.16;5041525;28;20343;-52
2022/05/04 09:29:37;;;;;;;12.27;9.43;;;15.10;75.10;;;15.07;59.05;97655.91;5042196;28;20045;-53
2022/05/04 09:32:15;;;;;;;9.77;8.82;;;15.20;70.90;;;14.88;59.30;97649.28;5044979;28;20352;-53
2022/05/04 09:34:54;;;;;;;10.75;9.60;;;14.90;72.60;;;14.88;60.37;97651.97;5043309;28;20051;-53
2022/05/04 09:45:55;;;;;;;14.43;11.48;;;15.00;75.40;;;15.14;60.60;97645.25;5043072;28;20057;-52
2022/05/04 09:48:34;;;;;;;12.88;10.90;;;15.20;74.30;;;15.18;60.32;97646.53;5041641;28;20057;-51
2022/05/04 09:51:08;;;;;;;10.48;9.35;;;15.30;74.40;;;15.23;60.05;97652.16;5040192;28;20049;-52
2022/05/04 09:53:37;;;;;;;11.77;9.95;;;15.30;73.70;;;15.37;59.51;97655.78;5044359;28;20049;-52
2022/05/04 09:56:05;;;;;;;10.80;9.80;;;15.50;73.10;;;15.42;59.61;97648.00;5044743;28;20371;-50
2022/05/04 09:58:33;;;;;;;12.70;9.63;;;15.60;73.00;;;15.46;59.04;97651.97;5044602;28;20340;-54
2022/05/04 10:01:01;;;;;;;18.77;9.68;;;15.60;71.60;;;15.55;59.06;97647.31;5044318;28;20049;-55
2022/05/04 10:03:30;;;;;;;11.07;9.93;;;15.60;72.10;;;15.65;59.23;97642.44;5044085;28;20221;-54
2022/05/04 10:06:00;;;;;;;11.38;10.30;;;15.80;72.30;;;15.72;58.92;97637.97;5043777;28;20068;-52
2022/05/04 10:08:28;;;;;;;14.93;10.15;;;15.90;71.70;;;15.80;58.80;97638.84;5042201;28;20057;-52
2022/05/04 10:10:58;;;;;;;11.30;9.18;;;16.00;70.40;;;15.88;58.76;97641.41;5041499;28;20063;-51
2022/05/04 10:13:26;;;;;;;10.25;9.13;;;16.10;71.30;;;15.93;58.66;97634.41;5039282;28;20045;-57
2022/05/04 10:15:57;;;;;;;15.73;9.43;;;16.10;71.10;;;15.93;58.44;97639.78;5039424;28;20049;-53
2022/05/04 10:18:29;;;;;;;11.48;9.52;;;16.10;71.40;;;16.03;58.14;97636.78;5037459;28;20055;-53
2022/05/04 10:21:11;;;;;;;10.20;9.20;;;16.20;70.20;;;15.91;57.21;97628.41;5036107;28;20057;-54
2022/05/04 10:23:55;;;;;;;11.30;8.95;;;16.00;68.20;;;15.75;56.41;97629.53;5033220;28;20102;-51
2022/05/04 10:26:35;;;;;;;10.45;9.30;;;15.90;67.10;;;15.86;57.14;97628.19;5030662;28;20357;-50
2022/05/04 10:32:28;;;;;;;9.43;8.18;;;16.10;69.00;;;16.03;57.44;97619.81;5031578;28;20251;-52
2022/05/04 10:35:38;;;;;;;10.60;8.90;;;16.20;68.60;;;16.18;57.59;97622.41;5031742;28;20252;-54
2022/05/04 10:38:27;;;;;;;10.63;8.57;;;16.50;68.00;;;16.04;56.50;97616.13;5037102;28;20284;-51
2022/05/04 10:40:56;;;;;;;10.20;9.15;;;16.30;66.90;;;16.02;56.37;97618.19;5032592;28;20258;-49
2022/05/04 10:43:45;;;;;;;10.88;8.80;;;16.20;67.70;;;15.87;57.05;97620.97;5031148;28;20056;-55
2022/05/04 10:46:17;;;;;;;11.20;8.50;;;16.10;67.80;;;15.99;57.08;97616.69;5029271;28;20552;-52
2022/05/04 10:49:07;;;;;;;10.60;8.65;;;16.10;69.20;;;16.13;57.34;97612.25;5031546;28;20061;-51
2022/05/04 10:51:39;;;;;;;10.70;9.60;;;16.30;68.90;;;16.22;57.55;97611.06;5029702;28;20053;-48
2022/05/04 10:54:12;;;;;;;10.85;9.65;;;16.40;69.30;;;16.22;57.24;97610.25;5009322;28;20046;-50
2022/05/04 10:56:49;;;;;;;9.95;8.77;;;16.30;69.30;;;16.28;57.23;97604.06;5010345;28;20272;-51
2022/05/04 10:59:32;;;;;;;9.95;8.95;;;16.50;68.90;;;16.35;57.15;97610.31;5009406;28;20049;-53
2022/05/04 11:02:05;;;;;;;10.13;9.10;;;16.50;67.90;;;16.39;57.11;97600.00;5009105;28;20053;-53